This is the latest recevied weather packets stored in our database for station/object SP9KB-13. If no packets are shown the sender has not sent any weather packets the latest 10 day(s).
| Time | Temp. | Humidity | Pressure | Rain* | Wind** | Luminosity | Snow |
|---|---|---|---|---|---|---|---|
| 1777268238 | 1.11° C | 76% | 1004.7 hPa | 0 mm | - | - | - |
| 1777267937 | 0.56° C | 75% | 1004.7 hPa | 0 mm | - | - | - |
| 1777267636 | 0.56° C | 75% | 1004.8 hPa | 0 mm | - | - | - |
| 1777267336 | 0.56° C | 73% | 1004.9 hPa | 0 mm | - | - | - |
| 1777267035 | 1.11° C | 71% | 1004.9 hPa | 0 mm | - | - | - |
| 1777266735 | 1.67° C | 66% | 1004.8 hPa | 0 mm | - | - | - |
| 1777266434 | 0.56° C | 72% | 1004.9 hPa | 0 mm | - | - | - |
| 1777266134 | 0.56° C | 74% | 1004.9 hPa | 0 mm | - | - | - |
| 1777265833 | 2.22° C | 71% | 1005 hPa | 0 mm | - | - | - |
| 1777265532 | 2.22° C | 69% | 1004.9 hPa | 0 mm | - | - | - |
| 1777265232 | 2.22° C | 71% | 1004.9 hPa | 0 mm | - | - | - |
| 1777264931 | 1.67° C | 74% | 1004.9 hPa | 0 mm | - | - | - |
| 1777264631 | 0° C | 80% | 1005.1 hPa | 0 mm | - | - | - |
| 1777264330 | -1.67° C | 88% | 1005.1 hPa | 0 mm | - | - | - |
| 1777264030 | -2.22° C | 90% | 1005.1 hPa | 0 mm | - | - | - |
| 1777263729 | -2.78° C | 90% | 1005.1 hPa | 0 mm | - | - | - |
| 1777263429 | -3.33° C | 90% | 1005 hPa | 0 mm | - | - | - |
| 1777263128 | -3.33° C | 91% | 1005.1 hPa | 0 mm | - | - | - |
| 1777262827 | -3.33° C | 92% | 1005.1 hPa | 0 mm | - | - | - |
| 1777262528 | -3.33° C | 92% | 1004.9 hPa | 0 mm | - | - | - |
| 1777262226 | -3.33° C | 92% | 1005.1 hPa | 0 mm | - | - | - |
| 1777261926 | -3.33° C | 91% | 1004.9 hPa | 0 mm | - | - | - |
| 1777261625 | -3.33° C | 91% | 1005 hPa | 0 mm | - | - | - |
| 1777261325 | -3.33° C | 91% | 1004.9 hPa | 0 mm | - | - | - |
| 1777261024 | -3.33° C | 90% | 1004.8 hPa | 0 mm | - | - | - |
* Rain latest hour (hover to see other rain measurements)
** Current wind speed in m/s (hover to see current wind gust speed)